METAR Data
IDs: Format: Raw Decoded Include TAF

Data at: 1441 UTC 25 Jan 2020

METAR for:KADW (Andrews AFB, MD, US)
Text:KADW 251428Z AUTO 29003KT 10SM OVC006 08/08 A2983 RMK AO2 RAE15DZB15E28 CIG 005 RWY19L SLPNO $
Temperature: 8.0°C ( 46°F)
Dewpoint: 8.0°C ( 46°F) [RH = 100%]
Pressure (altimeter):29.83 inches Hg (1010.2 mb)
Winds:from the WNW (290 degrees) at 3 MPH (3 knots; 1.5 m/s)
Visibility:10 or more sm (16+ km)
Ceiling:600 feet AGL
Clouds: overcast cloud deck at 600 feet AGL
QC Flag:automated observation with no human augmentation; SOME DATA ABOVE MAY BE INACCURATE!!!"$" is an indication the sensor requires maintenance.